sensor_id;sensor_type;location;lat;lon;timestamp;temperature;humidity
57652;DHT22;43480;53.116;6.734;2022-10-16T00:00:56;12.10;99.90
57652;DHT22;43480;53.116;6.734;2022-10-16T00:03:22;12.10;99.90
57652;DHT22;43480;53.116;6.734;2022-10-16T00:05:47;12.00;99.90
57652;DHT22;43480;53.116;6.734;2022-10-16T00:08:13;12.00;99.90
57652;DHT22;43480;53.116;6.734;2022-10-16T00:10:39;12.00;99.90
57652;DHT22;43480;53.116;6.734;2022-10-16T00:13:04;12.00;99.90
57652;DHT22;43480;53.116;6.734;2022-10-16T00:15:32;11.90;99.90
57652;DHT22;43480;53.116;6.734;2022-10-16T00:17:58;11.90;99.90
57652;DHT22;43480;53.116;6.734;2022-10-16T00:20:23;11.90;99.90
57652;DHT22;43480;53.116;6.734;2022-10-16T00:22:49;11.80;99.90
57652;DHT22;43480;53.116;6.734;2022-10-16T00:25:14;11.80;99.90
57652;DHT22;43480;53.116;6.734;2022-10-16T00:27:40;11.80;99.90
57652;DHT22;43480;53.116;6.734;2022-10-16T00:30:06;11.90;99.90
57652;DHT22;43480;53.116;6.734;2022-10-16T00:32:33;11.80;99.90
57652;DHT22;43480;53.116;6.734;2022-10-16T00:34:58;11.80;99.90
57652;DHT22;43480;53.116;6.734;2022-10-16T00:37:24;11.80;99.90
57652;DHT22;43480;53.116;6.734;2022-10-16T00:39:49;11.90;99.90
57652;DHT22;43480;53.116;6.734;2022-10-16T00:42:16;11.90;99.90
57652;DHT22;43480;53.116;6.734;2022-10-16T00:47:21;11.90;99.90
57652;DHT22;43480;53.116;6.734;2022-10-16T00:49:47;11.90;99.90
57652;DHT22;43480;53.116;6.734;2022-10-16T00:52:14;11.90;99.90
57652;DHT22;43480;53.116;6.734;2022-10-16T00:54:40;11.90;99.90
57652;DHT22;43480;53.116;6.734;2022-10-16T00:57:06;12.00;99.90
57652;DHT22;43480;53.116;6.734;2022-10-16T00:59:33;12.00;99.90
57652;DHT22;43480;53.116;6.734;2022-10-16T01:01:59;12.00;99.90
57652;DHT22;43480;53.116;6.734;2022-10-16T01:04:25;12.00;99.90
57652;DHT22;43480;53.116;6.734;2022-10-16T01:14:54;12.10;99.90
57652;DHT22;43480;53.116;6.734;2022-10-16T01:22:22;12.20;99.90
57652;DHT22;43480;53.116;6.734;2022-10-16T01:24:50;12.20;99.90
57652;DHT22;43480;53.116;6.734;2022-10-16T01:27:24;12.20;99.90
57652;DHT22;43480;53.116;6.734;2022-10-16T01:29:54;12.20;99.90
57652;DHT22;43480;53.116;6.734;2022-10-16T01:32:40;12.20;99.90
57652;DHT22;43480;53.116;6.734;2022-10-16T01:37:44;12.20;99.90
57652;DHT22;43480;53.116;6.734;2022-10-16T01:40:12;12.20;99.90
57652;DHT22;43480;53.116;6.734;2022-10-16T01:42:42;12.20;99.90
57652;DHT22;43480;53.116;6.734;2022-10-16T01:45:10;12.20;99.90
57652;DHT22;43480;53.116;6.734;2022-10-16T01:47:38;12.20;99.90
57652;DHT22;43480;53.116;6.734;2022-10-16T01:50:04;12.20;99.90
57652;DHT22;43480;53.116;6.734;2022-10-16T01:52:30;12.20;99.90
57652;DHT22;43480;53.116;6.734;2022-10-16T01:54:57;12.30;99.90
57652;DHT22;43480;53.116;6.734;2022-10-16T01:57:23;12.30;99.90
57652;DHT22;43480;53.116;6.734;2022-10-16T01:59:51;12.30;99.90
57652;DHT22;43480;53.116;6.734;2022-10-16T02:02:18;12.30;99.90
57652;DHT22;43480;53.116;6.734;2022-10-16T02:04:46;12.30;99.90
57652;DHT22;43480;53.116;6.734;2022-10-16T02:07:12;12.30;99.90
57652;DHT22;43480;53.116;6.734;2022-10-16T02:09:38;12.30;99.90
57652;DHT22;43480;53.116;6.734;2022-10-16T02:12:07;12.30;99.90
57652;DHT22;43480;53.116;6.734;2022-10-16T02:14:37;12.30;99.90
57652;DHT22;43480;53.116;6.734;2022-10-16T02:17:09;12.30;99.90
57652;DHT22;43480;53.116;6.734;2022-10-16T02:19:35;12.40;99.90
57652;DHT22;43480;53.116;6.734;2022-10-16T02:22:02;12.40;99.90
57652;DHT22;43480;53.116;6.734;2022-10-16T02:24:39;12.30;99.90
57652;DHT22;43480;53.116;6.734;2022-10-16T02:27:16;12.40;99.90
57652;DHT22;43480;53.116;6.734;2022-10-16T02:29:49;12.30;99.90
57652;DHT22;43480;53.116;6.734;2022-10-16T02:32:19;12.30;99.90
57652;DHT22;43480;53.116;6.734;2022-10-16T02:34:47;12.40;99.90
57652;DHT22;43480;53.116;6.734;2022-10-16T02:37:13;12.40;99.90
57652;DHT22;43480;53.116;6.734;2022-10-16T02:39:39;12.40;99.90
57652;DHT22;43480;53.116;6.734;2022-10-16T02:42:09;12.40;99.90
57652;DHT22;43480;53.116;6.734;2022-10-16T02:44:35;12.40;99.90
57652;DHT22;43480;53.116;6.734;2022-10-16T02:47:00;12.50;99.90
57652;DHT22;43480;53.116;6.734;2022-10-16T02:49:26;12.50;99.90
57652;DHT22;43480;53.116;6.734;2022-10-16T02:51:51;12.60;99.90
57652;DHT22;43480;53.116;6.734;2022-10-16T02:54:16;12.60;99.90
57652;DHT22;43480;53.116;6.734;2022-10-16T02:56:42;12.60;99.90
57652;DHT22;43480;53.116;6.734;2022-10-16T02:59:07;12.60;99.90
57652;DHT22;43480;53.116;6.734;2022-10-16T03:01:33;12.60;99.90
57652;DHT22;43480;53.116;6.734;2022-10-16T03:03:59;12.60;99.90
57652;DHT22;43480;53.116;6.734;2022-10-16T03:06:24;12.60;99.90
57652;DHT22;43480;53.116;6.734;2022-10-16T03:08:50;12.60;99.90
57652;DHT22;43480;53.116;6.734;2022-10-16T03:11:15;12.60;99.90
57652;DHT22;43480;53.116;6.734;2022-10-16T03:13:41;12.70;99.90
57652;DHT22;43480;53.116;6.734;2022-10-16T03:16:06;12.70;99.90
57652;DHT22;43480;53.116;6.734;2022-10-16T03:18:32;12.70;99.90
57652;DHT22;43480;53.116;6.734;2022-10-16T03:20:58;12.70;99.90
57652;DHT22;43480;53.116;6.734;2022-10-16T03:23:23;12.70;99.90
57652;DHT22;43480;53.116;6.734;2022-10-16T03:25:49;12.70;99.90
57652;DHT22;43480;53.116;6.734;2022-10-16T03:28:14;12.70;99.90
57652;DHT22;43480;53.116;6.734;2022-10-16T03:30:40;12.80;99.90
57652;DHT22;43480;53.116;6.734;2022-10-16T03:33:05;12.80;99.90
57652;DHT22;43480;53.116;6.734;2022-10-16T03:35:31;12.70;99.90
57652;DHT22;43480;53.116;6.734;2022-10-16T03:37:56;12.70;99.90
57652;DHT22;43480;53.116;6.734;2022-10-16T03:40:22;12.70;99.90
57652;DHT22;43480;53.116;6.734;2022-10-16T03:42:48;12.70;99.90
57652;DHT22;43480;53.116;6.734;2022-10-16T03:45:14;12.70;99.90
57652;DHT22;43480;53.116;6.734;2022-10-16T03:47:39;12.70;99.90
57652;DHT22;43480;53.116;6.734;2022-10-16T03:50:05;12.70;99.90
57652;DHT22;43480;53.116;6.734;2022-10-16T03:52:31;12.70;99.90
57652;DHT22;43480;53.116;6.734;2022-10-16T03:54:57;12.70;99.90
57652;DHT22;43480;53.116;6.734;2022-10-16T03:57:23;12.60;99.90
57652;DHT22;43480;53.116;6.734;2022-10-16T03:59:48;12.60;99.90
57652;DHT22;43480;53.116;6.734;2022-10-16T04:02:13;12.60;99.90
57652;DHT22;43480;53.116;6.734;2022-10-16T04:04:39;12.60;99.90
57652;DHT22;43480;53.116;6.734;2022-10-16T04:07:04;12.60;99.90
57652;DHT22;43480;53.116;6.734;2022-10-16T04:09:30;12.60;99.90
57652;DHT22;43480;53.116;6.734;2022-10-16T04:11:56;12.50;99.90
57652;DHT22;43480;53.116;6.734;2022-10-16T04:14:21;12.50;99.90
57652;DHT22;43480;53.116;6.734;2022-10-16T04:16:47;12.50;99.90
57652;DHT22;43480;53.116;6.734;2022-10-16T04:19:12;12.50;99.90
57652;DHT22;43480;53.116;6.734;2022-10-16T04:21:38;12.50;99.90
57652;DHT22;43480;53.116;6.734;2022-10-16T04:24:04;12.50;99.90
57652;DHT22;43480;53.116;6.734;2022-10-16T04:26:29;12.50;99.90
57652;DHT22;43480;53.116;6.734;2022-10-16T04:28:55;12.50;99.90
57652;DHT22;43480;53.116;6.734;2022-10-16T04:31:20;12.40;99.90
57652;DHT22;43480;53.116;6.734;2022-10-16T04:33:46;12.40;99.90
57652;DHT22;43480;53.116;6.734;2022-10-16T04:36:12;12.40;99.90
57652;DHT22;43480;53.116;6.734;2022-10-16T04:38:37;12.40;99.90
57652;DHT22;43480;53.116;6.734;2022-10-16T04:41:05;12.40;99.90
57652;DHT22;43480;53.116;6.734;2022-10-16T04:43:30;12.40;99.90
57652;DHT22;43480;53.116;6.734;2022-10-16T04:45:56;12.30;99.90
57652;DHT22;43480;53.116;6.734;2022-10-16T04:48:21;12.30;99.90
57652;DHT22;43480;53.116;6.734;2022-10-16T04:50:47;12.30;99.90
57652;DHT22;43480;53.116;6.734;2022-10-16T04:53:13;12.30;99.90
57652;DHT22;43480;53.116;6.734;2022-10-16T04:55:39;12.40;99.90
57652;DHT22;43480;53.116;6.734;2022-10-16T04:58:04;12.40;99.90
57652;DHT22;43480;53.116;6.734;2022-10-16T05:00:30;12.40;99.90
57652;DHT22;43480;53.116;6.734;2022-10-16T05:02:56;12.50;99.90
57652;DHT22;43480;53.116;6.734;2022-10-16T05:05:22;12.50;99.90
57652;DHT22;43480;53.116;6.734;2022-10-16T05:07:48;12.60;99.90
57652;DHT22;43480;53.116;6.734;2022-10-16T05:10:15;12.60;99.90
57652;DHT22;43480;53.116;6.734;2022-10-16T05:12:40;12.60;99.90
57652;DHT22;43480;53.116;6.734;2022-10-16T05:15:06;12.60;99.90
57652;DHT22;43480;53.116;6.734;2022-10-16T05:17:31;12.60;99.90
57652;DHT22;43480;53.116;6.734;2022-10-16T05:19:57;12.70;99.90
57652;DHT22;43480;53.116;6.734;2022-10-16T05:22:22;12.70;99.90
57652;DHT22;43480;53.116;6.734;2022-10-16T05:24:48;12.70;99.90
57652;DHT22;43480;53.116;6.734;2022-10-16T05:27:13;12.70;99.90
57652;DHT22;43480;53.116;6.734;2022-10-16T05:29:47;12.70;99.90
57652;DHT22;43480;53.116;6.734;2022-10-16T05:32:13;12.70;99.90
57652;DHT22;43480;53.116;6.734;2022-10-16T05:34:39;12.70;99.90
57652;DHT22;43480;53.116;6.734;2022-10-16T05:37:05;12.70;99.90
57652;DHT22;43480;53.116;6.734;2022-10-16T05:39:30;12.70;99.90
57652;DHT22;43480;53.116;6.734;2022-10-16T05:41:56;12.70;99.90
57652;DHT22;43480;53.116;6.734;2022-10-16T05:44:21;12.70;99.90
57652;DHT22;43480;53.116;6.734;2022-10-16T05:46:47;12.70;99.90
57652;DHT22;43480;53.116;6.734;2022-10-16T05:49:12;12.70;99.90
57652;DHT22;43480;53.116;6.734;2022-10-16T05:51:38;12.70;99.90
57652;DHT22;43480;53.116;6.734;2022-10-16T05:54:03;12.70;99.90
57652;DHT22;43480;53.116;6.734;2022-10-16T05:56:29;12.70;99.90
57652;DHT22;43480;53.116;6.734;2022-10-16T05:58:54;12.80;99.90
57652;DHT22;43480;53.116;6.734;2022-10-16T06:01:20;12.70;99.90
57652;DHT22;43480;53.116;6.734;2022-10-16T06:03:49;12.70;99.90
57652;DHT22;43480;53.116;6.734;2022-10-16T06:06:16;12.70;99.90
57652;DHT22;43480;53.116;6.734;2022-10-16T06:08:42;12.80;99.90
57652;DHT22;43480;53.116;6.734;2022-10-16T06:11:09;12.80;99.90
57652;DHT22;43480;53.116;6.734;2022-10-16T06:13:34;12.70;99.90
57652;DHT22;43480;53.116;6.734;2022-10-16T06:16:00;12.70;99.90
57652;DHT22;43480;53.116;6.734;2022-10-16T06:18:27;12.70;99.90
57652;DHT22;43480;53.116;6.734;2022-10-16T06:20:53;12.70;99.90
57652;DHT22;43480;53.116;6.734;2022-10-16T06:23:18;12.70;99.90
57652;DHT22;43480;53.116;6.734;2022-10-16T06:25:44;12.70;99.90
57652;DHT22;43480;53.116;6.734;2022-10-16T06:28:09;12.70;99.90
57652;DHT22;43480;53.116;6.734;2022-10-16T06:30:35;12.80;99.90
57652;DHT22;43480;53.116;6.734;2022-10-16T06:33:00;12.70;99.90
57652;DHT22;43480;53.116;6.734;2022-10-16T06:35:26;12.70;99.90
57652;DHT22;43480;53.116;6.734;2022-10-16T06:37:52;12.70;99.90
57652;DHT22;43480;53.116;6.734;2022-10-16T06:40:18;12.70;99.90
57652;DHT22;43480;53.116;6.734;2022-10-16T06:42:43;12.80;99.90
57652;DHT22;43480;53.116;6.734;2022-10-16T06:45:09;12.80;99.90
57652;DHT22;43480;53.116;6.734;2022-10-16T06:47:34;12.80;99.90
57652;DHT22;43480;53.116;6.734;2022-10-16T06:50:00;12.90;99.90
57652;DHT22;43480;53.116;6.734;2022-10-16T06:52:27;12.90;99.90
57652;DHT22;43480;53.116;6.734;2022-10-16T06:54:53;12.90;99.90
57652;DHT22;43480;53.116;6.734;2022-10-16T06:57:18;13.00;99.90
57652;DHT22;43480;53.116;6.734;2022-10-16T06:59:44;13.00;99.90
57652;DHT22;43480;53.116;6.734;2022-10-16T07:02:09;13.10;99.90
57652;DHT22;43480;53.116;6.734;2022-10-16T07:04:35;13.10;99.90
57652;DHT22;43480;53.116;6.734;2022-10-16T07:07:01;13.10;99.90
57652;DHT22;43480;53.116;6.734;2022-10-16T07:09:26;13.20;99.90
57652;DHT22;43480;53.116;6.734;2022-10-16T07:11:52;13.20;99.90
57652;DHT22;43480;53.116;6.734;2022-10-16T07:14:19;13.20;99.90
57652;DHT22;43480;53.116;6.734;2022-10-16T07:16:45;13.20;99.90
57652;DHT22;43480;53.116;6.734;2022-10-16T07:19:11;13.30;99.90
57652;DHT22;43480;53.116;6.734;2022-10-16T07:21:38;13.30;99.90
57652;DHT22;43480;53.116;6.734;2022-10-16T07:24:05;13.30;99.90
57652;DHT22;43480;53.116;6.734;2022-10-16T07:26:33;13.40;99.90
57652;DHT22;43480;53.116;6.734;2022-10-16T07:28:59;13.40;99.90
57652;DHT22;43480;53.116;6.734;2022-10-16T07:31:25;13.50;99.90
57652;DHT22;43480;53.116;6.734;2022-10-16T07:33:51;13.50;99.90
57652;DHT22;43480;53.116;6.734;2022-10-16T07:36:18;13.50;99.90
57652;DHT22;43480;53.116;6.734;2022-10-16T07:38:45;13.60;99.90
57652;DHT22;43480;53.116;6.734;2022-10-16T07:41:11;13.60;99.90
57652;DHT22;43480;53.116;6.734;2022-10-16T07:43:37;13.50;99.90
57652;DHT22;43480;53.116;6.734;2022-10-16T07:46:03;13.50;99.90
57652;DHT22;43480;53.116;6.734;2022-10-16T07:48:30;13.50;99.90
57652;DHT22;43480;53.116;6.734;2022-10-16T07:50:59;13.50;99.90
57652;DHT22;43480;53.116;6.734;2022-10-16T07:53:25;13.50;99.90
57652;DHT22;43480;53.116;6.734;2022-10-16T07:55:51;13.50;99.90
57652;DHT22;43480;53.116;6.734;2022-10-16T07:58:16;13.50;99.90
57652;DHT22;43480;53.116;6.734;2022-10-16T08:00:42;13.50;99.90
57652;DHT22;43480;53.116;6.734;2022-10-16T08:03:07;13.50;99.90
57652;DHT22;43480;53.116;6.734;2022-10-16T08:05:33;13.50;99.90
57652;DHT22;43480;53.116;6.734;2022-10-16T08:08:00;13.50;99.90
57652;DHT22;43480;53.116;6.734;2022-10-16T08:10:26;13.60;99.90
57652;DHT22;43480;53.116;6.734;2022-10-16T08:12:52;13.60;99.90
57652;DHT22;43480;53.116;6.734;2022-10-16T08:15:18;13.60;99.90
57652;DHT22;43480;53.116;6.734;2022-10-16T08:17:44;13.80;99.90
57652;DHT22;43480;53.116;6.734;2022-10-16T08:20:10;13.80;99.90
57652;DHT22;43480;53.116;6.734;2022-10-16T08:22:35;13.80;99.90
57652;DHT22;43480;53.116;6.734;2022-10-16T08:25:01;13.90;99.90
57652;DHT22;43480;53.116;6.734;2022-10-16T08:27:32;13.90;99.90
57652;DHT22;43480;53.116;6.734;2022-10-16T08:29:58;13.90;99.90
57652;DHT22;43480;53.116;6.734;2022-10-16T08:32:23;14.00;99.90
57652;DHT22;43480;53.116;6.734;2022-10-16T08:34:49;14.00;99.90
57652;DHT22;43480;53.116;6.734;2022-10-16T08:37:14;14.00;99.90
57652;DHT22;43480;53.116;6.734;2022-10-16T08:39:40;13.90;99.90
57652;DHT22;43480;53.116;6.734;2022-10-16T08:50:09;14.20;99.90
57652;DHT22;43480;53.116;6.734;2022-10-16T08:52:35;14.30;99.90
57652;DHT22;43480;53.116;6.734;2022-10-16T08:55:04;14.30;99.90
57652;DHT22;43480;53.116;6.734;2022-10-16T08:57:30;14.40;99.90
57652;DHT22;43480;53.116;6.734;2022-10-16T08:59:58;14.50;99.90
57652;DHT22;43480;53.116;6.734;2022-10-16T09:02:38;14.50;99.90
57652;DHT22;43480;53.116;6.734;2022-10-16T09:08:01;14.50;99.90
57652;DHT22;43480;53.116;6.734;2022-10-16T09:11:11;14.60;99.90
57652;DHT22;43480;53.116;6.734;2022-10-16T09:13:26;14.70;99.90
57652;DHT22;43480;53.116;6.734;2022-10-16T09:21:16;14.90;99.90
57652;DHT22;43480;53.116;6.734;2022-10-16T09:23:43;15.00;99.90
57652;DHT22;43480;53.116;6.734;2022-10-16T09:26:11;15.00;99.90
57652;DHT22;43480;53.116;6.734;2022-10-16T09:28:37;15.00;99.90
57652;DHT22;43480;53.116;6.734;2022-10-16T09:31:03;15.00;99.90
57652;DHT22;43480;53.116;6.734;2022-10-16T09:33:29;15.10;99.90
57652;DHT22;43480;53.116;6.734;2022-10-16T09:35:56;15.10;99.90
57652;DHT22;43480;53.116;6.734;2022-10-16T09:38:25;15.20;99.90
57652;DHT22;43480;53.116;6.734;2022-10-16T09:40:51;15.30;99.90
57652;DHT22;43480;53.116;6.734;2022-10-16T09:45:42;15.50;99.90
57652;DHT22;43480;53.116;6.734;2022-10-16T09:48:11;15.60;99.90
57652;DHT22;43480;53.116;6.734;2022-10-16T09:50:37;15.80;99.90
57652;DHT22;43480;53.116;6.734;2022-10-16T09:53:11;15.90;99.90
57652;DHT22;43480;53.116;6.734;2022-10-16T09:55:47;16.10;99.90
57652;DHT22;43480;53.116;6.734;2022-10-16T09:58:13;16.10;99.90
57652;DHT22;43480;53.116;6.734;2022-10-16T10:00:39;16.20;99.90
57652;DHT22;43480;53.116;6.734;2022-10-16T10:03:09;16.10;99.90
57652;DHT22;43480;53.116;6.734;2022-10-16T10:05:35;16.10;99.90
57652;DHT22;43480;53.116;6.734;2022-10-16T10:08:01;16.00;99.90
57652;DHT22;43480;53.116;6.734;2022-10-16T10:10:32;16.00;99.90
57652;DHT22;43480;53.116;6.734;2022-10-16T10:12:58;16.10;99.90
57652;DHT22;43480;53.116;6.734;2022-10-16T10:15:24;16.10;99.90
57652;DHT22;43480;53.116;6.734;2022-10-16T10:20:21;16.40;99.90
57652;DHT22;43480;53.116;6.734;2022-10-16T10:22:47;16.30;99.90
57652;DHT22;43480;53.116;6.734;2022-10-16T10:32:41;16.20;99.90
57652;DHT22;43480;53.116;6.734;2022-10-16T10:35:13;16.30;99.90
57652;DHT22;43480;53.116;6.734;2022-10-16T10:40:28;16.20;99.90
57652;DHT22;43480;53.116;6.734;2022-10-16T10:43:06;16.10;99.90
57652;DHT22;43480;53.116;6.734;2022-10-16T10:48:17;16.10;99.90
57652;DHT22;43480;53.116;6.734;2022-10-16T10:50:49;16.00;99.90
57652;DHT22;43480;53.116;6.734;2022-10-16T10:55:53;15.80;99.90
57652;DHT22;43480;53.116;6.734;2022-10-16T10:58:43;15.90;99.90
57652;DHT22;43480;53.116;6.734;2022-10-16T11:01:16;16.00;99.90
57652;DHT22;43480;53.116;6.734;2022-10-16T11:03:51;16.20;99.90
57652;DHT22;43480;53.116;6.734;2022-10-16T11:08:53;16.30;99.90
57652;DHT22;43480;53.116;6.734;2022-10-16T11:14:20;16.20;99.90
57652;DHT22;43480;53.116;6.734;2022-10-16T11:21:49;16.80;99.90
57652;DHT22;43480;53.116;6.734;2022-10-16T11:24:35;17.00;99.90
57652;DHT22;43480;53.116;6.734;2022-10-16T11:27:07;17.10;99.90
57652;DHT22;43480;53.116;6.734;2022-10-16T11:29:33;17.30;99.90
57652;DHT22;43480;53.116;6.734;2022-10-16T11:32:03;17.40;99.90
57652;DHT22;43480;53.116;6.734;2022-10-16T11:34:38;17.40;99.90
57652;DHT22;43480;53.116;6.734;2022-10-16T11:37:11;17.30;99.90
57652;DHT22;43480;53.116;6.734;2022-10-16T11:39:38;17.30;99.90
57652;DHT22;43480;53.116;6.734;2022-10-16T11:42:07;17.50;99.90
57652;DHT22;43480;53.116;6.734;2022-10-16T11:47:23;17.70;99.90
57652;DHT22;43480;53.116;6.734;2022-10-16T11:49:55;18.00;99.90
57652;DHT22;43480;53.116;6.734;2022-10-16T11:52:24;18.00;99.90
57652;DHT22;43480;53.116;6.734;2022-10-16T11:54:56;17.70;99.90
57652;DHT22;43480;53.116;6.734;2022-10-16T11:57:24;17.60;99.90
57652;DHT22;43480;53.116;6.734;2022-10-16T11:59:58;17.50;99.90
57652;DHT22;43480;53.116;6.734;2022-10-16T12:02:34;17.70;99.90
57652;DHT22;43480;53.116;6.734;2022-10-16T12:05:17;17.90;99.90
57652;DHT22;43480;53.116;6.734;2022-10-16T12:07:48;17.90;99.90
57652;DHT22;43480;53.116;6.734;2022-10-16T12:10:19;17.90;99.90
57652;DHT22;43480;53.116;6.734;2022-10-16T12:12:45;17.80;99.90
57652;DHT22;43480;53.116;6.734;2022-10-16T12:15:19;17.60;99.90
57652;DHT22;43480;53.116;6.734;2022-10-16T12:17:45;17.40;99.90
57652;DHT22;43480;53.116;6.734;2022-10-16T12:22:37;17.10;99.90
57652;DHT22;43480;53.116;6.734;2022-10-16T12:25:17;17.00;99.90
57652;DHT22;43480;53.116;6.734;2022-10-16T12:27:44;17.00;99.90
57652;DHT22;43480;53.116;6.734;2022-10-16T12:30:15;17.20;99.90
57652;DHT22;43480;53.116;6.734;2022-10-16T12:32:45;17.10;99.90
57652;DHT22;43480;53.116;6.734;2022-10-16T12:35:21;17.00;99.90
57652;DHT22;43480;53.116;6.734;2022-10-16T12:37:48;16.80;99.90
57652;DHT22;43480;53.116;6.734;2022-10-16T12:40:26;16.70;99.90
57652;DHT22;43480;53.116;6.734;2022-10-16T12:42:52;16.70;99.90
57652;DHT22;43480;53.116;6.734;2022-10-16T12:45:30;16.70;99.90
57652;DHT22;43480;53.116;6.734;2022-10-16T12:47:57;16.60;99.90
57652;DHT22;43480;53.116;6.734;2022-10-16T12:50:27;16.50;99.90
57652;DHT22;43480;53.116;6.734;2022-10-16T12:52:53;16.50;99.90
57652;DHT22;43480;53.116;6.734;2022-10-16T12:55:19;16.40;99.90
57652;DHT22;43480;53.116;6.734;2022-10-16T13:03:54;16.30;99.90
57652;DHT22;43480;53.116;6.734;2022-10-16T13:06:33;16.30;99.90
57652;DHT22;43480;53.116;6.734;2022-10-16T13:09:10;16.30;99.90
57652;DHT22;43480;53.116;6.734;2022-10-16T13:12:19;16.30;99.90
57652;DHT22;43480;53.116;6.734;2022-10-16T13:29:47;16.60;99.90
57652;DHT22;43480;53.116;6.734;2022-10-16T13:32:17;16.50;99.90
57652;DHT22;43480;53.116;6.734;2022-10-16T13:34:45;16.50;99.90
57652;DHT22;43480;53.116;6.734;2022-10-16T13:54:01;17.20;99.90
57652;DHT22;43480;53.116;6.734;2022-10-16T13:56:30;17.20;99.90
57652;DHT22;43480;53.116;6.734;2022-10-16T14:01:25;17.10;99.90
57652;DHT22;43480;53.116;6.734;2022-10-16T14:03:51;17.10;99.90
57652;DHT22;43480;53.116;6.734;2022-10-16T14:06:18;17.20;99.90
57652;DHT22;43480;53.116;6.734;2022-10-16T14:09:06;17.20;99.90
57652;DHT22;43480;53.116;6.734;2022-10-16T14:11:32;17.30;99.90
57652;DHT22;43480;53.116;6.734;2022-10-16T14:13:58;17.30;99.90
57652;DHT22;43480;53.116;6.734;2022-10-16T14:16:27;17.30;99.90
57652;DHT22;43480;53.116;6.734;2022-10-16T14:21:19;18.10;99.90
57652;DHT22;43480;53.116;6.734;2022-10-16T14:23:45;18.40;99.90
57652;DHT22;43480;53.116;6.734;2022-10-16T14:28:38;18.70;99.90
57652;DHT22;43480;53.116;6.734;2022-10-16T14:33:50;18.70;99.90
57652;DHT22;43480;53.116;6.734;2022-10-16T14:36:15;18.40;99.90
57652;DHT22;43480;53.116;6.734;2022-10-16T14:38:56;18.20;99.90
57652;DHT22;43480;53.116;6.734;2022-10-16T14:41:22;17.90;99.90
57652;DHT22;43480;53.116;6.734;2022-10-16T14:43:50;17.70;99.90
57652;DHT22;43480;53.116;6.734;2022-10-16T14:46:21;17.50;99.90
57652;DHT22;43480;53.116;6.734;2022-10-16T14:48:59;17.30;99.90
57652;DHT22;43480;53.116;6.734;2022-10-16T14:51:25;17.20;99.90
57652;DHT22;43480;53.116;6.734;2022-10-16T14:53:51;17.00;99.90
57652;DHT22;43480;53.116;6.734;2022-10-16T14:56:18;16.80;99.90
57652;DHT22;43480;53.116;6.734;2022-10-16T14:58:44;16.70;99.90
57652;DHT22;43480;53.116;6.734;2022-10-16T15:01:10;16.50;99.90
57652;DHT22;43480;53.116;6.734;2022-10-16T15:03:37;16.40;99.90
57652;DHT22;43480;53.116;6.734;2022-10-16T15:06:02;16.30;99.90
57652;DHT22;43480;53.116;6.734;2022-10-16T15:08:28;16.20;99.90
57652;DHT22;43480;53.116;6.734;2022-10-16T15:10:53;16.10;99.90
57652;DHT22;43480;53.116;6.734;2022-10-16T15:13:19;16.10;99.90
57652;DHT22;43480;53.116;6.734;2022-10-16T15:15:45;16.00;99.90
57652;DHT22;43480;53.116;6.734;2022-10-16T15:18:11;15.90;99.90
57652;DHT22;43480;53.116;6.734;2022-10-16T15:20:38;15.80;99.90
57652;DHT22;43480;53.116;6.734;2022-10-16T15:23:05;15.70;99.90
57652;DHT22;43480;53.116;6.734;2022-10-16T15:25:34;15.70;99.90
57652;DHT22;43480;53.116;6.734;2022-10-16T15:28:00;15.70;99.90
57652;DHT22;43480;53.116;6.734;2022-10-16T15:30:26;15.60;99.90
57652;DHT22;43480;53.116;6.734;2022-10-16T15:32:51;15.60;99.90
57652;DHT22;43480;53.116;6.734;2022-10-16T15:35:17;15.60;99.90
57652;DHT22;43480;53.116;6.734;2022-10-16T15:37:42;15.50;99.90
57652;DHT22;43480;53.116;6.734;2022-10-16T15:40:09;15.50;99.90
57652;DHT22;43480;53.116;6.734;2022-10-16T15:42:34;15.50;99.90
57652;DHT22;43480;53.116;6.734;2022-10-16T15:45:00;15.40;99.90
57652;DHT22;43480;53.116;6.734;2022-10-16T15:47:25;15.30;99.90
57652;DHT22;43480;53.116;6.734;2022-10-16T15:49:51;15.30;99.90
57652;DHT22;43480;53.116;6.734;2022-10-16T15:52:16;15.20;99.90
57652;DHT22;43480;53.116;6.734;2022-10-16T15:54:42;15.10;99.90
57652;DHT22;43480;53.116;6.734;2022-10-16T15:57:08;15.10;99.90
57652;DHT22;43480;53.116;6.734;2022-10-16T15:59:34;15.00;99.90
57652;DHT22;43480;53.116;6.734;2022-10-16T16:01:59;14.90;99.90
57652;DHT22;43480;53.116;6.734;2022-10-16T16:04:25;14.80;99.90
57652;DHT22;43480;53.116;6.734;2022-10-16T16:06:50;14.70;99.90
57652;DHT22;43480;53.116;6.734;2022-10-16T16:09:16;14.70;99.90
57652;DHT22;43480;53.116;6.734;2022-10-16T16:11:41;14.60;99.90
57652;DHT22;43480;53.116;6.734;2022-10-16T16:14:08;14.50;99.90
57652;DHT22;43480;53.116;6.734;2022-10-16T16:16:36;14.40;99.90
57652;DHT22;43480;53.116;6.734;2022-10-16T16:19:03;14.30;99.90
57652;DHT22;43480;53.116;6.734;2022-10-16T16:21:30;14.20;99.90
57652;DHT22;43480;53.116;6.734;2022-10-16T16:23:55;14.20;99.90
57652;DHT22;43480;53.116;6.734;2022-10-16T16:28:53;14.00;99.90
57652;DHT22;43480;53.116;6.734;2022-10-16T16:31:19;13.90;99.90
57652;DHT22;43480;53.116;6.734;2022-10-16T16:33:44;13.80;99.90
57652;DHT22;43480;53.116;6.734;2022-10-16T16:36:11;13.70;99.90
57652;DHT22;43480;53.116;6.734;2022-10-16T16:38:36;13.60;99.90
57652;DHT22;43480;53.116;6.734;2022-10-16T16:41:15;13.60;99.90
57652;DHT22;43480;53.116;6.734;2022-10-16T16:43:41;13.50;99.90
57652;DHT22;43480;53.116;6.734;2022-10-16T16:46:07;13.40;99.90
57652;DHT22;43480;53.116;6.734;2022-10-16T16:48:32;13.30;99.90
57652;DHT22;43480;53.116;6.734;2022-10-16T16:51:04;13.30;99.90
57652;DHT22;43480;53.116;6.734;2022-10-16T16:53:30;13.30;99.90
57652;DHT22;43480;53.116;6.734;2022-10-16T16:56:00;13.20;99.90
57652;DHT22;43480;53.116;6.734;2022-10-16T16:58:25;13.20;99.90
57652;DHT22;43480;53.116;6.734;2022-10-16T17:00:51;13.20;99.90
57652;DHT22;43480;53.116;6.734;2022-10-16T17:03:16;13.10;99.90
57652;DHT22;43480;53.116;6.734;2022-10-16T17:05:42;13.10;99.90
57652;DHT22;43480;53.116;6.734;2022-10-16T17:08:07;13.00;99.90
57652;DHT22;43480;53.116;6.734;2022-10-16T17:10:33;13.00;99.90
57652;DHT22;43480;53.116;6.734;2022-10-16T17:12:59;13.00;99.90
57652;DHT22;43480;53.116;6.734;2022-10-16T17:15:24;12.90;99.90
57652;DHT22;43480;53.116;6.734;2022-10-16T17:17:50;12.90;99.90
57652;DHT22;43480;53.116;6.734;2022-10-16T17:20:15;12.90;99.90
57652;DHT22;43480;53.116;6.734;2022-10-16T17:22:41;12.80;99.90
57652;DHT22;43480;53.116;6.734;2022-10-16T17:25:06;12.70;99.90
57652;DHT22;43480;53.116;6.734;2022-10-16T17:27:33;12.70;99.90
57652;DHT22;43480;53.116;6.734;2022-10-16T17:29:58;12.60;99.90
57652;DHT22;43480;53.116;6.734;2022-10-16T17:32:24;12.60;99.90